Terminal Aerodrome Forecast
Issued by NWS

Home | Current Version | Previous Version | Text Only | Print | Product List | Glossary On
Versions: 1 2 3 4 5 6 7 8 9 10 11 12 13 14 15
905
FTAK31 PAJN 262326
TAFAWG
TAF
PAWG 262326Z 2700/2724 VRB06KT P6SM -SHRA VCTS SCT025CB BKN040
      BKN060
      TEMPO 2700/2704 6SM -SHRA BKN025 OVC040
     FM270700 13005KT P6SM VCSH SCT025 OVC040
     FM271300 00000KT 2SM BR BKN004
     FM271800 12004KT P6SM -SHRA SCT025 BKN040 OVC060
      AMD LTD TO CLD VIS AND WIND 2706/2715=

USA.gov is the U.S. government's official web portal to all federal, state and local government web resources and services.